Buffaloville, Indiana
Current Conditions -  °F | °C
As of 10:55 AM on Friday 31 Oct 2014 (Local Time) from KHNB Reporting Station
Overcast Overcast  
Wind Chill: 34°   Ceiling: 1400
Heat Index: 43°   Visibility: 8mi
Dew Point: 36°   Wind: 21mph
Humidity: 76%   Direction: 360°N
Pressure: 30.08"   Gusts: 28mph
Location:  38.0467°N, 86.9637°W
Report Text: KHNB 311555Z AUTO 36018G24KT 8SM BKN014 BKN019 OVC024 06/02 A3008 RMK AO1
Loading
Personal Weather Stations






























Interactive Weather Map
Tropical Storm Tracking
New forecast layout! Learn more

10-Day Weather Forecast

Advertisements
Track Severe Weather on mobile